^^
Datos históricos de la estación: Murcia-Puente Tocinos
Diario Informe para Marzo 14, 2019 Unidades:  Ambas    Ingés   Métrico
Diario Semanal Mensual Anual
  Máxima: Mínima: Promedio:
Temperatura: 72.1 °F /  22.3 °C 67.5 °F /  19.7 °C 70.3 °F /  21.3 °C
Punto de rocio: 67.3 °F /  19.6 °C 64.9 °F /  18.3 °C 65.8 °F /  18.8 °C
Humedad: 94% 79% 86%
Velocidad viento: 5.9mph /  9.5km/h - 1.4mph /  2.2km/h
Racha viento: 39.1mph /  62.9km/h - -
Viento- - SSE
Presión: 30 in /  1014.5 hPa 29.8 in /  1009.2 hPa -
Precipitación: 0.12 in /  3.0 mm    
 
 
Tabla de datos para Marzo 14, 2019
Hora Temperatura Punto de rocio Presión Viento Velocidad viento Racha viento Humedad Intensidad lluvia(por hora) Nubes
00:04 70.2 °F /  21.2 °C 67.1 °F /  19.5 °C 30in /  1014.4hPa NE 3.1mph /  5km/h 5.2mph /  8.4km/h 90% 0in /  0.0mm
00:09 70 °F /  21.1 °C 67.1 °F /  19.5 °C 30in /  1014.4hPa NE 3mph /  4.9km/h 5.2mph /  8.4km/h 90.5% 0in /  0.0mm
00:14 70 °F /  21.1 °C 67.3 °F /  19.6 °C 30in /  1014.4hPa NE 2.9mph /  4.7km/h 5mph /  8km/h 91% 0in /  0.0mm
00:19 70 °F /  21.1 °C 67.3 °F /  19.6 °C 30in /  1014.5hPa NE 2.5mph /  4.1km/h 3.5mph /  5.6km/h 91% 0in /  0.0mm
00:24 70 °F /  21.1 °C 67.3 °F /  19.6 °C 30in /  1014.5hPa NE 1.4mph /  2.2km/h 3.5mph /  5.6km/h 91% 0in /  0.0mm
00:29 70 °F /  21.1 °C 67.3 °F /  19.6 °C 30in /  1014.5hPa NE 1.5mph /  2.4km/h 3mph /  4.8km/h 91% 0in /  0.0mm
00:34 70 °F /  21.1 °C 67.3 °F /  19.6 °C 30in /  1014.5hPa NE 1.8mph /  2.9km/h 3mph /  4.8km/h 91% 0in /  0.0mm
00:39 69.8 °F /  21 °C 67.1 °F /  19.5 °C 30in /  1014.4hPa NE 1.4mph /  2.3km/h 2.4mph /  3.9km/h 91% 0in /  0.0mm
00:44 69.8 °F /  21 °C 67.1 °F /  19.5 °C 30in /  1014.4hPa Calm   4.7mph /  7.6km/h 91% 0in /  0.0mm
00:49 69.6 °F /  20.9 °C 66.9 °F /  19.4 °C 30in /  1014.4hPa Este 0.6mph /  1km/h 5mph /  8km/h 91% 0in /  0.0mm
00:54 69.6 °F /  20.9 °C 66.9 °F /  19.4 °C 30in /  1014.4hPa Este 2.9mph /  4.7km/h 5mph /  8km/h 91% 0in /  0.0mm
00:59 69.6 °F /  20.9 °C 66.9 °F /  19.4 °C 30in /  1014.4hPa Este 2.8mph /  4.5km/h 4.7mph /  7.6km/h 91% 0in /  0.0mm
01:04 69.6 °F /  20.9 °C 66.9 °F /  19.4 °C 30in /  1014.4hPa Este 2.4mph /  3.9km/h 5mph /  8km/h 91% 0in /  0.0mm
01:09 69.6 °F /  20.9 °C 66.9 °F /  19.4 °C 30in /  1014.4hPa Este 2.3mph /  3.7km/h 4mph /  6.4km/h 91% 0in /  0.0mm
01:14 69.6 °F /  20.9 °C 66.9 °F /  19.4 °C 30in /  1014.4hPa Este 2mph /  3.2km/h 4mph /  6.4km/h 91% 0in /  0.0mm
01:19 69.8 °F /  21 °C 67.1 °F /  19.5 °C 30in /  1014.4hPa Este 1.9mph /  3km/h 3mph /  4.8km/h 91% 0in /  0.0mm
01:24 69.8 °F /  21 °C 67.1 °F /  19.5 °C 30in /  1014.4hPa Este 1.4mph /  2.2km/h 2.4mph /  3.9km/h 90.9% 0in /  0.0mm
01:29 70 °F /  21.1 °C 66.9 °F /  19.4 °C 30in /  1014.4hPa Este 1.4mph /  2.2km/h 3.5mph /  5.6km/h 90% 0in /  0.0mm
01:34 70 °F /  21.1 °C 66.9 °F /  19.4 °C 30in /  1014.5hPa Este 1.4mph /  2.2km/h 3.6mph /  5.8km/h 90% 0in /  0.0mm
01:39 70.2 °F /  21.2 °C 67.1 °F /  19.5 °C 30in /  1014.5hPa ESE 1.6mph /  2.6km/h 5.2mph /  8.4km/h 90% 0in /  0.0mm
01:44 70.2 °F /  21.2 °C 67.1 °F /  19.5 °C 30in /  1014.5hPa SSE 2.4mph /  3.9km/h 5mph /  8km/h 89.8% 0in /  0.0mm
01:49 70.2 °F /  21.2 °C 66.7 °F /  19.3 °C 30in /  1014.5hPa ESE 2.4mph /  3.9km/h 5mph /  8km/h 89% 0in /  0.0mm
01:54 70.2 °F /  21.2 °C 66.7 °F /  19.3 °C 30in /  1014.4hPa ENE 2.4mph /  3.9km/h 2.9mph /  4.7km/h 89% 0in /  0.0mm
01:59 70 °F /  21.1 °C 66.6 °F /  19.2 °C 30in /  1014.4hPa ENE 2.2mph /  3.5km/h 3mph /  4.8km/h 89% 0in /  0.0mm
02:04 70 °F /  21.1 °C 66.6 °F /  19.2 °C 30in /  1014.4hPa ESE 1.4mph /  2.2km/h 4.6mph /  7.4km/h 89% 0in /  0.0mm
02:09 69.8 °F /  21 °C 66.4 °F /  19.1 °C 30in /  1014.3hPa SSO 1.6mph /  2.6km/h 5mph /  8km/h 89% 0in /  0.0mm
02:14 69.6 °F /  20.9 °C 66.2 °F /  19 °C 30in /  1014.3hPa OSO 2.4mph /  3.9km/h 5mph /  8km/h 89% 0in /  0.0mm
02:19 69.6 °F /  20.9 °C 66.2 °F /  19 °C 30in /  1014.3hPa SO 2.4mph /  3.9km/h 5mph /  8km/h 89% 0in /  0.0mm
02:24 69.4 °F /  20.8 °C 66.2 °F /  19 °C 30in /  1014.3hPa SO 2.4mph /  3.9km/h 5mph /  8km/h 89.1% 0in /  0.0mm
02:29 69.4 °F /  20.8 °C 66.4 °F /  19.1 °C 30in /  1014.3hPa OSO 2.3mph /  3.7km/h 4.6mph /  7.4km/h 90% 0in /  0.0mm
02:34 69.4 °F /  20.8 °C 66.4 °F /  19.1 °C 30in /  1014.3hPa OSO 2mph /  3.2km/h 5mph /  8km/h 90% 0in /  0.0mm
02:39 69.3 °F /  20.7 °C 66.2 °F /  19 °C 30in /  1014.3hPa Oeste 2mph /  3.2km/h 4.6mph /  7.4km/h 90% 0in /  0.0mm
02:44 69.3 °F /  20.7 °C 66.2 °F /  19 °C 30in /  1014.3hPa ONO 2mph /  3.2km/h 5mph /  8km/h 90% 0in /  0.0mm
02:49 69.1 °F /  20.6 °C 66 °F /  18.9 °C 30in /  1014.3hPa OSO 2mph /  3.2km/h 4mph /  6.4km/h 90% 0in /  0.0mm
02:54 69.1 °F /  20.6 °C 66 °F /  18.9 °C 29.9in /  1014.1hPa OSO 1.8mph /  2.9km/h 3mph /  4.8km/h 90% 0in /  0.0mm
02:59 69.1 °F /  20.6 °C 66 °F /  18.9 °C 29.9in /  1014.1hPa OSO 1.4mph /  2.2km/h 2.9mph /  4.7km/h 90% 0in /  0.0mm
03:04 69.1 °F /  20.6 °C 66 °F /  18.9 °C 29.9in /  1014.1hPa Calm   3mph /  4.8km/h 90% 0in /  0.0mm
03:09 69.1 °F /  20.6 °C 66 °F /  18.9 °C 29.9in /  1013.9hPa Sur 0.4mph /  0.7km/h 4.6mph /  7.4km/h 90% 0in /  0.0mm
03:14 69.1 °F /  20.6 °C 66 °F /  18.9 °C 29.9in /  1013.9hPa Sur 1.8mph /  2.9km/h 5mph /  8km/h 90% 0in /  0.0mm
03:19 69.1 °F /  20.6 °C 66 °F /  18.9 °C 29.9in /  1013.9hPa Sur 2.1mph /  3.3km/h 5mph /  8km/h 90% 0in /  0.0mm
03:24 69.1 °F /  20.6 °C 66 °F /  18.9 °C 29.9in /  1013.8hPa SE 2.9mph /  4.7km/h 5mph /  8km/h 90% 0in /  0.0mm
03:29 69.1 °F /  20.6 °C 66 °F /  18.9 °C 29.9in /  1013.8hPa ESE 2.8mph /  4.5km/h 5mph /  8km/h 90% 0in /  0.0mm
03:34 68.9 °F /  20.5 °C 65.8 °F /  18.8 °C 29.9in /  1013.8hPa ESE 2.4mph /  3.9km/h 5mph /  8km/h 90% 0in /  0.0mm
03:39 68.7 °F /  20.4 °C 65.7 °F /  18.7 °C 29.9in /  1013.4hPa Este 2.4mph /  3.9km/h 5mph /  8km/h 90% 0in /  0.0mm
03:44 68.5 °F /  20.3 °C 65.5 °F /  18.6 °C 29.9in /  1013.4hPa ESE 2.4mph /  3.9km/h 5mph /  8km/h 90% 0in /  0.0mm
03:49 68.4 °F /  20.2 °C 65.3 °F /  18.5 °C 29.9in /  1013.4hPa ESE 2.2mph /  3.5km/h 3mph /  4.8km/h 90% 0in /  0.0mm
03:54 68.4 °F /  20.2 °C 65.3 °F /  18.5 °C 29.9in /  1013.1hPa Este 1.4mph /  2.2km/h 3.6mph /  5.8km/h 90% 0in /  0.0mm
03:59 68.2 °F /  20.1 °C 65.1 °F /  18.4 °C 29.9in /  1013.1hPa NNE 1.6mph /  2.5km/h 4.6mph /  7.4km/h 90% 0in /  0.0mm
04:04 67.8 °F /  19.9 °C 64.9 °F /  18.3 °C 29.9in /  1013.1hPa NE 2mph /  3.2km/h 5mph /  8km/h 90.3% 0in /  0.0mm
04:09 67.6 °F /  19.8 °C 64.9 °F /  18.3 °C 29.9in /  1012.8hPa North 2.1mph /  3.4km/h 5mph /  8km/h 91% 0in /  0.0mm
04:14 67.6 °F /  19.8 °C 64.9 °F /  18.3 °C 29.9in /  1012.8hPa NNO 2.4mph /  3.9km/h 5mph /  8km/h 91% 0in /  0.0mm
04:19 67.5 °F /  19.7 °C 64.9 °F /  18.3 °C 29.9in /  1012.8hPa North 2.4mph /  3.9km/h 4mph /  6.4km/h 91.4% 0in /  0.0mm
04:24 67.5 °F /  19.7 °C 65.1 °F /  18.4 °C 29.9in /  1012.6hPa NNE 2.4mph /  3.9km/h 4.6mph /  7.4km/h 92% 0in /  0.0mm
04:29 67.5 °F /  19.7 °C 65.1 °F /  18.4 °C 29.9in /  1012.6hPa NE 2.4mph /  3.9km/h 5.2mph /  8.4km/h 92% 0in /  0.0mm
04:34 67.5 °F /  19.7 °C 65.5 °F /  18.6 °C 29.9in /  1012.6hPa NE 2.4mph /  3.9km/h 5mph /  8km/h 93% 0in /  0.0mm
04:39 67.6 °F /  19.8 °C 65.5 °F /  18.6 °C 29.9in /  1012.5hPa NE 2.4mph /  3.9km/h 5mph /  8km/h 93% 0in /  0.0mm
04:44 67.6 °F /  19.8 °C 65.5 °F /  18.6 °C 29.9in /  1012.5hPa ENE 2.4mph /  3.9km/h 4mph /  6.4km/h 93% 0in /  0.0mm
04:49 67.6 °F /  19.8 °C 65.5 °F /  18.6 °C 29.9in /  1012.5hPa NE 2.4mph /  3.9km/h 4.6mph /  7.4km/h 93% 0in /  0.0mm
04:54 67.6 °F /  19.8 °C 65.5 °F /  18.6 °C 29.9in /  1012.3hPa NNE 2.4mph /  3.9km/h 5mph /  8km/h 93% 0in /  0.0mm
04:59 67.6 °F /  19.8 °C 65.5 °F /  18.6 °C 29.9in /  1012.3hPa NE 2.5mph /  4.1km/h 5.4mph /  8.7km/h 93% 0in /  0.0mm
05:04 67.5 °F /  19.7 °C 65.5 °F /  18.6 °C 29.9in /  1012.3hPa ENE 2.9mph /  4.6km/h 6mph /  9.7km/h 93% 0in /  0.0mm
05:09 67.6 °F /  19.8 °C 65.7 °F /  18.7 °C 29.9in /  1012.2hPa ENE 2.7mph /  4.4km/h 5mph /  8km/h 93.6% 0in /  0.0mm
05:14 67.6 °F /  19.8 °C 65.8 °F /  18.8 °C 29.9in /  1012.2hPa ENE 2mph /  3.2km/h 3mph /  4.8km/h 94% 0in /  0.0mm
05:19 67.8 °F /  19.9 °C 66 °F /  18.9 °C 29.9in /  1012.4hPa ENE 1.6mph /  2.5km/h 1.8mph /  2.9km/h 94% 0in /  0.0mm
05:24 67.8 °F /  19.9 °C 66 °F /  18.9 °C 29.9in /  1012.4hPa Calm   4mph /  6.4km/h 94% 0in /  0.0mm
05:29 68 °F /  20 °C 66.2 °F /  19 °C 29.9in /  1012.4hPa Oeste 0.4mph /  0.7km/h 5mph /  8km/h 93.8% 0in /  0.0mm
05:34 68 °F /  20 °C 65.8 °F /  18.8 °C 29.9in /  1012.4hPa Oeste 2mph /  3.2km/h 5mph /  8km/h 93% 0in /  0.0mm
05:39 67.8 °F /  19.9 °C 65.8 °F /  18.8 °C 29.9in /  1012.4hPa Oeste 1.9mph /  3.1km/h 4mph /  6.4km/h 93% 0in /  0.0mm
05:44 68 °F /  20 °C 65.8 °F /  18.8 °C 29.9in /  1012.4hPa Oeste 1.8mph /  2.9km/h 2.4mph /  3.9km/h 93% 0in /  0.0mm
05:49 68 °F /  20 °C 66 °F /  18.9 °C 29.9in /  1012.4hPa Oeste 1.4mph /  2.3km/h 3.1mph /  5km/h 93% 0in /  0.0mm
05:54 68.2 °F /  20.1 °C 66 °F /  18.9 °C 29.9in /  1012.4hPa Calm   4.6mph /  7.4km/h 93% 0in /  0.0mm
05:59 68 °F /  20 °C 65.8 °F /  18.8 °C 29.9in /  1012.4hPa ENE 0.6mph /  0.9km/h 5mph /  8km/h 93% 0in /  0.0mm
06:04 67.8 °F /  19.9 °C 65.7 °F /  18.7 °C 29.9in /  1012.4hPa ENE 2.4mph /  3.9km/h 5mph /  8km/h 93% 0in /  0.0mm
06:09 67.8 °F /  19.9 °C 65.8 °F /  18.8 °C 29.9in /  1012.2hPa ENE 1.9mph /  3km/h 2.4mph /  3.9km/h 93% 0in /  0.0mm
06:14 68 °F /  20 °C 65.8 °F /  18.8 °C 29.9in /  1012.2hPa Calm   2.9mph /  4.7km/h 93% 0in /  0.0mm
06:19 68.2 °F /  20.1 °C 66 °F /  18.9 °C 29.9in /  1012.2hPa Calm   3mph /  4.8km/h 93% 0in /  0.0mm
06:24 68.2 °F /  20.1 °C 66 °F /  18.9 °C 29.9in /  1012.2hPa Calm   4.6mph /  7.4km/h 93% 0in /  0.0mm
06:29 68.2 °F /  20.1 °C 66 °F /  18.9 °C 29.9in /  1012.2hPa ENE 0.4mph /  0.6km/h 5mph /  8km/h 93% 0in /  0.0mm
06:34 68.2 °F /  20.1 °C 66 °F /  18.9 °C 29.9in /  1012.2hPa ENE 1.8mph /  2.9km/h 4mph /  6.4km/h 93% 0in /  0.0mm
06:39 68 °F /  20 °C 65.8 °F /  18.8 °C 29.9in /  1011.9hPa ENE 1.8mph /  2.9km/h 4.6mph /  7.4km/h 93% 0in /  0.0mm
06:44 68 °F /  20 °C 65.8 °F /  18.8 °C 29.9in /  1011.9hPa ESE 1.8mph /  2.9km/h 5mph /  8km/h 93% 0in /  0.0mm
06:49 68 °F /  20 °C 65.8 °F /  18.8 °C 29.9in /  1012.2hPa ESE 1.9mph /  3km/h 5mph /  8km/h 93% 0in /  0.0mm
06:54 68 °F /  20 °C 66 °F /  18.9 °C 29.9in /  1012.2hPa ESE 2mph /  3.2km/h 2.9mph /  4.7km/h 93.5% 0in /  0.0mm
06:59 68 °F /  20 °C 66 °F /  18.9 °C 29.9in /  1012.2hPa ESE 1.9mph /  3.1km/h 4mph /  6.4km/h 93.5% 0in /  0.0mm
07:04 68 °F /  20 °C 66.2 °F /  19 °C 29.9in /  1012.2hPa Este 1.8mph /  2.9km/h 4.6mph /  7.4km/h 94% 0in /  0.0mm
07:09 68 °F /  20 °C 66 °F /  18.9 °C 29.9in /  1012.0hPa NO 1.9mph /  3km/h 5mph /  8km/h 93.2% 0in /  0.0mm
07:14 68 °F /  20 °C 66.2 °F /  19 °C 29.9in /  1012.0hPa NO 2mph /  3.2km/h 4mph /  6.4km/h 93.8% 0in /  0.0mm
07:19 68 °F /  20 °C 66.2 °F /  19 °C 29.9in /  1012.0hPa NO 1.6mph /  2.6km/h 2mph /  3.2km/h 94% 0in /  0.0mm
07:24 68.2 °F /  20.1 °C 66.4 °F /  19.1 °C 29.9in /  1011.8hPa Calm   3.5mph /  5.6km/h 94% 0in /  0.0mm
07:29 68.2 °F /  20.1 °C 66.4 °F /  19.1 °C 29.9in /  1011.8hPa Calm   3mph /  4.8km/h 94% 0in /  0.0mm
07:34 68.2 °F /  20.1 °C 66.2 °F /  19 °C 29.9in /  1011.8hPa Calm   3.6mph /  5.8km/h 93.3% 0in /  0.0mm
07:39 68 °F /  20 °C 65.8 °F /  18.8 °C 29.9in /  1011.6hPa ESE 0.4mph /  0.7km/h 4.6mph /  7.4km/h 93% 0in /  0.0mm
07:44 67.8 °F /  19.9 °C 65.7 °F /  18.7 °C 29.9in /  1011.6hPa SE 2mph /  3.2km/h 5mph /  8km/h 93% 0in /  0.0mm
07:49 67.6 °F /  19.8 °C 65.5 °F /  18.6 °C 29.9in /  1011.6hPa SE 2.2mph /  3.5km/h 5mph /  8km/h 93% 0in /  0.0mm
07:54 67.6 °F /  19.8 °C 65.7 °F /  18.7 °C 29.9in /  1011.6hPa SSE 2.9mph /  4.7km/h 5mph /  8km/h 93.3% 0in /  0.0mm
07:59 67.8 °F /  19.9 °C 66 °F /  18.9 °C 29.9in /  1011.6hPa SSE 2.7mph /  4.4km/h 5mph /  8km/h 94% 0in /  0.0mm
08:04 67.8 °F /  19.9 °C 66 °F /  18.9 °C 29.9in /  1011.6hPa SSE 2.4mph /  3.9km/h 5mph /  8km/h 94% 0in /  0.0mm
08:09 67.8 °F /  19.9 °C 66 °F /  18.9 °C 29.9in /  1011.5hPa Sur 2.5mph /  4km/h 5mph /  8km/h 94% 0in /  0.0mm
08:14 67.8 °F /  19.9 °C 66 °F /  18.9 °C 29.9in /  1011.5hPa Sur 2.9mph /  4.7km/h 5mph /  8km/h 94% 0in /  0.0mm
08:19 67.8 °F /  19.9 °C 66 °F /  18.9 °C 29.9in /  1011.5hPa Sur 2.7mph /  4.3km/h 3.6mph /  5.8km/h 94% 0in /  0.0mm
08:24 68 °F /  20 °C 66.2 °F /  19 °C 29.9in /  1011.3hPa Sur 1.8mph /  2.9km/h 4mph /  6.4km/h 94% 0in /  0.0mm
08:29 68.2 °F /  20.1 °C 66 °F /  18.9 °C 29.9in /  1011.3hPa OSO 1.9mph /  3km/h 4.7mph /  7.6km/h 93.2% 0in /  0.0mm
08:34 68.2 °F /  20.1 °C 66.2 °F /  19 °C 29.9in /  1011.7hPa SSO 2mph /  3.2km/h 5.8mph /  9.3km/h 93% 0in /  0.0mm
08:39 68.4 °F /  20.2 °C 66.4 °F /  19.1 °C 29.9in /  1011.7hPa SSO 2.4mph /  3.8km/h 6mph /  9.7km/h 93% 0in /  0.0mm
08:44 68.4 °F /  20.2 °C 66.4 °F /  19.1 °C 29.9in /  1011.7hPa Sur 3.6mph /  5.8km/h 5.2mph /  8.4km/h 93% 0in /  0.0mm
08:49 68.5 °F /  20.3 °C 66.4 °F /  19.1 °C 29.9in /  1011.7hPa SSO 3.5mph /  5.6km/h 5.4mph /  8.7km/h 93% 0in /  0.0mm
08:54 68.5 °F /  20.3 °C 66.4 °F /  19.1 °C 29.9in /  1011.7hPa SSO 3.1mph /  5km/h 6mph /  9.7km/h 92.5% 0in /  0.0mm
08:59 68.7 °F /  20.4 °C 66.4 °F /  19.1 °C 29.9in /  1011.7hPa SSO 3.1mph /  5km/h 6.9mph /  11.1km/h 92% 0in /  0.0mm
09:04 68.7 °F /  20.4 °C 66.4 °F /  19.1 °C 29.9in /  1011.7hPa SSO 3.1mph /  5km/h 7mph /  11.3km/h 92% 0in /  0.0mm
09:09 68.7 °F /  20.4 °C 66.4 °F /  19.1 °C 29.9in /  1011.7hPa SSO 3.3mph /  5.3km/h 6mph /  9.7km/h 92% 0in /  0.0mm
09:14 68.7 °F /  20.4 °C 66.2 °F /  19 °C 29.9in /  1011.7hPa SSO 4mph /  6.4km/h 6mph /  9.7km/h 91.4% 0in /  0.0mm
09:19 68.9 °F /  20.5 °C 66.2 °F /  19 °C 29.9in /  1011.9hPa Sur 3.8mph /  6.1km/h 6mph /  9.7km/h 91.1% 0in /  0.0mm
09:24 69.1 °F /  20.6 °C 66.4 °F /  19.1 °C 29.9in /  1011.9hPa SO 3.1mph /  5km/h 6.9mph /  11.1km/h 91% 0in /  0.0mm
09:29 69.3 °F /  20.7 °C 66.6 °F /  19.2 °C 29.9in /  1011.9hPa SO 3.2mph /  5.2km/h 7mph /  11.3km/h 91% 0in /  0.0mm
09:34 69.4 °F /  20.8 °C 66.4 °F /  19.1 °C 29.9in /  1012.1hPa SO 3.6mph /  5.8km/h 6mph /  9.7km/h 90.1% 0in /  0.0mm
09:39 69.4 °F /  20.8 °C 66.2 °F /  19 °C 29.9in /  1012.1hPa OSO 3.6mph /  5.8km/h 6.9mph /  11.1km/h 89.6% 0in /  0.0mm
09:44 69.4 °F /  20.8 °C 66.2 °F /  19 °C 29.9in /  1012.1hPa SO 3.6mph /  5.8km/h 7mph /  11.3km/h 89% 0in /  0.0mm
09:49 69.6 °F /  20.9 °C 66.2 °F /  19 °C 29.9in /  1012.5hPa SO 3.7mph /  6km/h 7.4mph /  11.9km/h 89% 0in /  0.0mm
09:54 69.6 °F /  20.9 °C 66.2 °F /  19 °C 29.9in /  1012.5hPa SO 4.3mph /  6.9km/h 8.5mph /  13.7km/h 88.6% 0in /  0.0mm
09:59 70 °F /  21.1 °C 66.2 °F /  19 °C 29.9in /  1012.5hPa OSO 4.7mph /  7.6km/h 11.5mph /  18.5km/h 88% 0in /  0.0mm
10:04 70.2 °F /  21.2 °C 66.4 °F /  19.1 °C 29.9in /  1012.9hPa OSO 5.9mph /  9.5km/h 12mph /  19.3km/h 88% 0in /  0.0mm
10:09 70.2 °F /  21.2 °C 66.2 °F /  19 °C 29.9in /  1012.9hPa OSO 5.9mph /  9.5km/h 12mph /  19.3km/h 87.1% 0in /  0.0mm
10:14 70.3 °F /  21.3 °C 66.4 °F /  19.1 °C 29.9in /  1012.9hPa OSO 5.9mph /  9.5km/h 9mph /  14.5km/h 87% 0in /  0.0mm
10:19 70.5 °F /  21.4 °C 66.4 °F /  19.1 °C 29.9in /  1013.2hPa OSO 5.7mph /  9.1km/h 10.4mph /  16.7km/h 86.6% 0in /  0.0mm
10:24 70.7 °F /  21.5 °C 66 °F /  18.9 °C 29.9in /  1013.2hPa SO 4.7mph /  7.6km/h 10.4mph /  16.7km/h 85.5% 0in /  0.0mm
10:29 70.9 °F /  21.6 °C 66 °F /  18.9 °C 29.9in /  1013.2hPa SSO 4.8mph /  7.7km/h 7.4mph /  11.9km/h 85% 0in /  0.0mm
10:34 70.9 °F /  21.6 °C 66.2 °F /  19 °C 29.9in /  1013.5hPa Sur 5.2mph /  8.4km/h 8.1mph /  13km/h 85% 0in /  0.0mm
10:39 71.1 °F /  21.7 °C 66.4 °F /  19.1 °C 29.9in /  1013.5hPa Sur 5.1mph /  8.2km/h 8mph /  12.9km/h 85.3% 0in /  0.0mm
10:44 71.1 °F /  21.7 °C 66.7 °F /  19.3 °C 29.9in /  1013.5hPa SSE 4.7mph /  7.6km/h 7mph /  11.3km/h 86% 0in /  0.0mm
10:49 71.2 °F /  21.8 °C 66.4 °F /  19.1 °C 29.9in /  1013.5hPa SSO 4.3mph /  7km/h 6mph /  9.7km/h 84.9% 0in /  0.0mm
10:54 71.4 °F /  21.9 °C 65.8 °F /  18.8 °C 29.9in /  1013.3hPa OSO 3.1mph /  5km/h 6.2mph /  10km/h 82.8% 0in /  0.0mm
10:59 71.8 °F /  22.1 °C 66 °F /  18.9 °C 29.9in /  1013.3hPa OSO 3.4mph /  5.4km/h 8.5mph /  13.7km/h 82.1% 0in /  0.0mm
11:04 71.8 °F /  22.1 °C 65.5 °F /  18.6 °C 29.9in /  1013.3hPa Oeste 4mph /  6.4km/h 15mph /  24.1km/h 80.7% 0in /  0.0mm
11:09 71.8 °F /  22.1 °C 65.3 °F /  18.5 °C 29.9in /  1013.1hPa ONO 3.8mph /  6.1km/h 15mph /  24.1km/h 80% 0in /  0.0mm
11:14 72 °F /  22.2 °C 65.5 °F /  18.6 °C 29.9in /  1013.1hPa OSO 2.9mph /  4.7km/h 5.8mph /  9.3km/h 79.9% 0in /  0.0mm
11:19 72 °F /  22.2 °C 65.3 °F /  18.5 °C 29.9in /  1013.3hPa OSO 2.9mph /  4.7km/h 39.1mph /  62.9km/h 79.2% 0in /  0.0mm
11:24 72.1 °F /  22.3 °C 65.3 °F /  18.5 °C 29.9in /  1013.3hPa ONO 2.9mph /  4.7km/h 39.1mph /  62.9km/h 79% 0in /  0.0mm
11:29 72.1 °F /  22.3 °C 65.3 °F /  18.5 °C 29.9in /  1013.3hPa ONO 2.9mph /  4.7km/h 27mph /  43.5km/h 79% 0in /  0.0mm
11:34 72.1 °F /  22.3 °C 65.3 °F /  18.5 °C 29.9in /  1013.3hPa ONO 2.9mph /  4.7km/h 26.5mph /  42.6km/h 79% 0in /  0.0mm
11:39 72.1 °F /  22.3 °C 65.3 °F /  18.5 °C 29.9in /  1012.7hPa ONO 0.6mph /  0.9km/h 26.5mph /  42.6km/h 79% 0in /  0.0mm
11:44 72.1 °F /  22.3 °C 65.3 °F /  18.5 °C 29.9in /  1012.7hPa Calm   26mph /  41.8km/h 79% 0in /  0.0mm
11:49 72.1 °F /  22.3 °C 65.3 °F /  18.5 °C 29.9in /  1012.7hPa Calm     79% 0in /  0.0mm
11:54 72.1 °F /  22.3 °C 65.3 °F /  18.5 °C 29.9in /  1012.7hPa Calm     79% 0in /  0.0mm
11:59 72.1 °F /  22.3 °C 65.3 °F /  18.5 °C 29.9in /  1012.7hPa Calm     79% 0.12in /  3.0mm
12:04 72.1 °F /  22.3 °C 65.3 °F /  18.5 °C 29.9in /  1012.7hPa Calm     79% 0.12in /  3.0mm
12:09 72.1 °F /  22.3 °C 65.3 °F /  18.5 °C 29.9in /  1012.3hPa Calm     79% 0.12in /  3.0mm
12:14 72.1 °F /  22.3 °C 65.3 °F /  18.5 °C 29.9in /  1012.3hPa Calm     79% 0.12in /  3.0mm
12:19 72.1 °F /  22.3 °C 65.3 °F /  18.5 °C 29.9in /  1012.3hPa Calm     79% 0.12in /  3.0mm
12:24 72.1 °F /  22.3 °C 65.3 °F /  18.5 °C 29.9in /  1012.0hPa Calm     79% 0.12in /  3.0mm
12:29 72.1 °F /  22.3 °C 65.3 °F /  18.5 °C 29.9in /  1012.0hPa Calm     79% 0.12in /  3.0mm
12:34 72.1 °F /  22.3 °C 65.3 °F /  18.5 °C 29.9in /  1012.1hPa Calm     79% 0.12in /  3.0mm
12:39 72.1 °F /  22.3 °C 65.3 °F /  18.5 °C 29.9in /  1012.1hPa Calm     79% 0.12in /  3.0mm
12:44 72.1 °F /  22.3 °C 65.3 °F /  18.5 °C 29.9in /  1012.1hPa Calm     79% 0.12in /  3.0mm
12:49 72.1 °F /  22.3 °C 65.3 °F /  18.5 °C 29.9in /  1012.1hPa Calm     79% 0.12in /  3.0mm
12:54 72.1 °F /  22.3 °C 65.3 °F /  18.5 °C 29.9in /  1011.9hPa Calm     79% 0.12in /  3.0mm
12:59 72.1 °F /  22.3 °C 65.3 °F /  18.5 °C 29.9in /  1011.9hPa Calm     79% 0.12in /  3.0mm
13:04 72.1 °F /  22.3 °C 65.3 °F /  18.5 °C 29.9in /  1011.9hPa Calm     79% 0in /  0.0mm
13:09 72.1 °F /  22.3 °C 65.3 °F /  18.5 °C 29.9in /  1011.9hPa Calm     79% 0in /  0.0mm
13:14 72.1 °F /  22.3 °C 65.3 °F /  18.5 °C 29.9in /  1011.9hPa Calm     79% 0in /  0.0mm
13:19 72.1 °F /  22.3 °C 65.3 °F /  18.5 °C 29.9in /  1011.9hPa Calm     79% 0in /  0.0mm
13:24 72.1 °F /  22.3 °C 65.3 °F /  18.5 °C 29.9in /  1011.7hPa Calm     79% 0in /  0.0mm
13:29 72.1 °F /  22.3 °C 65.3 °F /  18.5 °C 29.9in /  1011.7hPa Calm     79% 0in /  0.0mm
13:34 72.1 °F /  22.3 °C 65.3 °F /  18.5 °C 29.9in /  1011.7hPa Calm     79% 0in /  0.0mm
13:39 72.1 °F /  22.3 °C 65.3 °F /  18.5 °C 29.9in /  1011.1hPa Calm     79% 0in /  0.0mm
13:44 72.1 °F /  22.3 °C 65.3 °F /  18.5 °C 29.9in /  1011.1hPa Calm     79% 0in /  0.0mm
13:49 72.1 °F /  22.3 °C 65.3 °F /  18.5 °C 29.9in /  1011.5hPa Calm     79% 0in /  0.0mm
13:54 72.1 °F /  22.3 °C 65.3 °F /  18.5 °C 29.9in /  1011.5hPa Calm     79% 0in /  0.0mm
13:59 72.1 °F /  22.3 °C 65.3 °F /  18.5 °C 29.9in /  1011.5hPa Calm     79% 0in /  0.0mm
14:04 72.1 °F /  22.3 °C 65.3 °F /  18.5 °C 29.9in /  1011.6hPa Calm     79% 0in /  0.0mm
14:09 72.1 °F /  22.3 °C 65.3 °F /  18.5 °C 29.9in /  1011.6hPa Calm     79% 0in /  0.0mm
14:14 72.1 °F /  22.3 °C 65.3 °F /  18.5 °C 29.9in /  1011.6hPa Calm     79% 0in /  0.0mm
14:19 72.1 °F /  22.3 °C 65.3 °F /  18.5 °C 29.9in /  1011.6hPa Calm     79% 0in /  0.0mm
14:24 72.1 °F /  22.3 °C 65.3 °F /  18.5 °C 29.9in /  1011.3hPa Calm     79% 0in /  0.0mm
14:29 72.1 °F /  22.3 °C 65.3 °F /  18.5 °C 29.9in /  1011.3hPa Calm     79% 0in /  0.0mm
14:34 72.1 °F /  22.3 °C 65.3 °F /  18.5 °C 29.9in /  1011.3hPa Calm     79% 0in /  0.0mm
14:39 72.1 °F /  22.3 °C 65.3 °F /  18.5 °C 29.9in /  1011.0hPa Calm     79% 0in /  0.0mm
14:44 72.1 °F /  22.3 °C 65.3 °F /  18.5 °C 29.9in /  1011.0hPa Calm     79% 0in /  0.0mm
14:49 72.1 °F /  22.3 °C 65.3 °F /  18.5 °C 29.9in /  1011.0hPa Calm     79% 0in /  0.0mm
14:54 72.1 °F /  22.3 °C 65.3 °F /  18.5 °C 29.9in /  1010.8hPa Calm     79% 0in /  0.0mm
14:59 72.1 °F /  22.3 °C 65.3 °F /  18.5 °C 29.9in /  1010.8hPa Calm     79% 0in /  0.0mm
15:04 72.1 °F /  22.3 °C 65.3 °F /  18.5 °C 29.9in /  1010.8hPa Calm     79% 0in /  0.0mm
15:09 72.1 °F /  22.3 °C 65.3 °F /  18.5 °C 29.8in /  1010.4hPa Calm     79% 0in /  0.0mm
15:14 72.1 °F /  22.3 °C 65.3 °F /  18.5 °C 29.8in /  1010.4hPa Calm     79% 0in /  0.0mm
15:19 72.1 °F /  22.3 °C 65.3 °F /  18.5 °C 29.8in /  1010.4hPa Calm     79% 0in /  0.0mm
15:24 72.1 °F /  22.3 °C 65.3 °F /  18.5 °C 29.8in /  1010.4hPa Calm     79% 0in /  0.0mm
15:29 72.1 °F /  22.3 °C 65.3 °F /  18.5 °C 29.8in /  1010.4hPa Calm     79% 0in /  0.0mm
15:34 72.1 °F /  22.3 °C 65.3 °F /  18.5 °C 29.8in /  1010.4hPa Calm     79% 0in /  0.0mm
15:39 72.1 °F /  22.3 °C 65.3 °F /  18.5 °C 29.8in /  1010.3hPa Calm     79% 0in /  0.0mm
15:44 72.1 °F /  22.3 °C 65.3 °F /  18.5 °C 29.8in /  1010.3hPa Calm     79% 0in /  0.0mm
15:49 72.1 °F /  22.3 °C 65.3 °F /  18.5 °C 29.8in /  1010.3hPa Calm     79% 0in /  0.0mm
15:54 72.1 °F /  22.3 °C 65.3 °F /  18.5 °C 29.8in /  1010.0hPa Calm     79% 0in /  0.0mm
15:59 72.1 °F /  22.3 °C 65.3 °F /  18.5 °C 29.8in /  1010.0hPa Calm     79% 0in /  0.0mm
16:04 72.1 °F /  22.3 °C 65.3 °F /  18.5 °C 29.8in /  1010.0hPa Calm     79% 0in /  0.0mm
16:09 72.1 °F /  22.3 °C 65.3 °F /  18.5 °C 29.8in /  1010.0hPa Calm     79% 0in /  0.0mm
16:14 72.1 °F /  22.3 °C 65.3 °F /  18.5 °C 29.8in /  1010.0hPa Calm     79% 0in /  0.0mm
16:19 72.1 °F /  22.3 °C 65.3 °F /  18.5 °C 29.8in /  1010.0hPa Calm     79% 0in /  0.0mm
16:24 72.1 °F /  22.3 °C 65.3 °F /  18.5 °C 29.8in /  1009.8hPa Calm     79% 0in /  0.0mm
16:29 72.1 °F /  22.3 °C 65.3 °F /  18.5 °C 29.8in /  1009.8hPa Calm     79% 0in /  0.0mm
16:34 72.1 °F /  22.3 °C 65.3 °F /  18.5 °C 29.8in /  1009.8hPa Calm     79% 0in /  0.0mm
16:39 72.1 °F /  22.3 °C 65.3 °F /  18.5 °C 29.8in /  1009.7hPa Calm     79% 0in /  0.0mm
16:44 72.1 °F /  22.3 °C 65.3 °F /  18.5 °C 29.8in /  1009.7hPa Calm     79% 0in /  0.0mm
16:49 72.1 °F /  22.3 °C 65.3 °F /  18.5 °C 29.8in /  1009.7hPa Calm     79% 0in /  0.0mm
16:54 72.1 °F /  22.3 °C 65.3 °F /  18.5 °C 29.8in /  1009.7hPa Calm     79% 0in /  0.0mm
16:59 72.1 °F /  22.3 °C 65.3 °F /  18.5 °C 29.8in /  1009.7hPa Calm     79% 0in /  0.0mm
17:04 72.1 °F /  22.3 °C 65.3 °F /  18.5 °C 29.8in /  1009.7hPa Calm     79% 0in /  0.0mm
17:09 72.1 °F /  22.3 °C 65.3 °F /  18.5 °C 29.8in /  1009.5hPa Calm     79% 0in /  0.0mm
17:14 72.1 °F /  22.3 °C 65.3 °F /  18.5 °C 29.8in /  1009.5hPa Calm     79% 0in /  0.0mm
17:19 72.1 °F /  22.3 °C 65.3 °F /  18.5 °C 29.8in /  1009.5hPa Calm     79% 0in /  0.0mm
17:24 72.1 °F /  22.3 °C 65.3 °F /  18.5 °C 29.8in /  1009.5hPa Calm     79% 0in /  0.0mm
17:29 72.1 °F /  22.3 °C 65.3 °F /  18.5 °C 29.8in /  1009.5hPa Calm     79% 0in /  0.0mm
17:34 72.1 °F /  22.3 °C 65.3 °F /  18.5 °C 29.8in /  1009.5hPa Calm     79% 0in /  0.0mm
17:39 72.1 °F /  22.3 °C 65.3 °F /  18.5 °C 29.8in /  1009.3hPa Calm     79% 0in /  0.0mm
17:44 72.1 °F /  22.3 °C 65.3 °F /  18.5 °C 29.8in /  1009.3hPa Calm     79% 0in /  0.0mm
17:49 72.1 °F /  22.3 °C 65.3 °F /  18.5 °C 29.8in /  1009.3hPa Calm     79% 0in /  0.0mm
17:54 72.1 °F /  22.3 °C 65.3 °F /  18.5 °C 29.8in /  1009.3hPa Calm     79% 0in /  0.0mm
17:59 72.1 °F /  22.3 °C 65.3 °F /  18.5 °C 29.8in /  1009.3hPa Calm     79% 0in /  0.0mm
18:04 72.1 °F /  22.3 °C 65.3 °F /  18.5 °C 29.8in /  1009.3hPa Calm     79% 0in /  0.0mm
18:09 72.1 °F /  22.3 °C 65.3 °F /  18.5 °C 29.8in /  1009.3hPa Calm     79% 0in /  0.0mm
18:14 72.1 °F /  22.3 °C 65.3 °F /  18.5 °C 29.8in /  1009.3hPa Calm     79% 0in /  0.0mm
18:19 72.1 °F /  22.3 °C 65.3 °F /  18.5 °C 29.8in /  1009.3hPa Calm     79% 0in /  0.0mm
18:24 72.1 °F /  22.3 °C 65.3 °F /  18.5 °C 29.8in /  1009.2hPa Calm     79% 0in /  0.0mm
18:29 72.1 °F /  22.3 °C 65.3 °F /  18.5 °C 29.8in /  1009.2hPa Calm     79% 0in /  0.0mm
18:34 72.1 °F /  22.3 °C 65.3 °F /  18.5 °C 29.8in /  1009.3hPa Calm     79% 0in /  0.0mm
18:39 72.1 °F /  22.3 °C 65.3 °F /  18.5 °C 29.8in /  1009.3hPa Calm     79% 0in /  0.0mm
18:44 72.1 °F /  22.3 °C 65.3 °F /  18.5 °C 29.8in /  1009.3hPa Calm     79% 0in /  0.0mm
18:49 72.1 °F /  22.3 °C 65.3 °F /  18.5 °C 29.8in /  1009.4hPa Calm     79% 0in /  0.0mm
18:54 72.1 °F /  22.3 °C 65.3 °F /  18.5 °C 29.8in /  1009.4hPa Calm     79% 0in /  0.0mm
18:59 72.1 °F /  22.3 °C 65.3 °F /  18.5 °C 29.8in /  1009.4hPa Calm     79% 0in /  0.0mm
19:04 72.1 °F /  22.3 °C 65.3 °F /  18.5 °C 29.8in /  1009.5hPa Calm     79% 0in /  0.0mm
19:09 72.1 °F /  22.3 °C 65.3 °F /  18.5 °C 29.8in /  1009.5hPa Calm     79% 0in /  0.0mm
19:14 72.1 °F /  22.3 °C 65.3 °F /  18.5 °C 29.8in /  1009.5hPa Calm     79% 0in /  0.0mm
19:19 72.1 °F /  22.3 °C 65.3 °F /  18.5 °C 29.8in /  1009.5hPa Calm     79% 0in /  0.0mm
19:24 72.1 °F /  22.3 °C 65.3 °F /  18.5 °C 29.8in /  1009.4hPa Calm     79% 0in /  0.0mm
19:29 72.1 °F /  22.3 °C 65.3 °F /  18.5 °C 29.8in /  1009.4hPa Calm     79% 0in /  0.0mm
19:34 72.1 °F /  22.3 °C 65.3 °F /  18.5 °C 29.8in /  1009.6hPa Calm     79% 0in /  0.0mm
19:39 72.1 °F /  22.3 °C 65.3 °F /  18.5 °C 29.8in /  1009.6hPa Calm     79% 0in /  0.0mm
19:44 72.1 °F /  22.3 °C 65.3 °F /  18.5 °C 29.8in /  1009.6hPa Calm     79% 0in /  0.0mm
19:49 72.1 °F /  22.3 °C 65.3 °F /  18.5 °C 29.8in /  1009.9hPa Calm     79% 0in /  0.0mm
19:54 72.1 °F /  22.3 °C 65.3 °F /  18.5 °C 29.8in /  1009.9hPa Calm     79% 0in /  0.0mm
19:59 72.1 °F /  22.3 °C 65.3 °F /  18.5 °C 29.8in /  1009.9hPa Calm     79% 0in /  0.0mm
20:04 72.1 °F /  22.3 °C 65.3 °F /  18.5 °C 29.8in /  1010.3hPa Calm     79% 0in /  0.0mm
20:09 72.1 °F /  22.3 °C 65.3 °F /  18.5 °C 29.8in /  1010.3hPa Calm     79% 0in /  0.0mm
Murcia-Puente Tocinos, España
Compliments of Weather Underground - 2.5 mb

La estación de MeteoMurcia.com, publica sus datos en los siguientes proyectos:

Weather Underground PWS IMURCIAP2 Meteoclimatic www.awekas.at

W3Counter
Web Analytics